sensor_id;sensor_type;location;lat;lon;timestamp;pressure;altitude;pressure_sealevel;temperature;humidity
34979;BME280;21185;50.978;13.720;2023-04-19T00:03:11;99041.59;;;9.56;85.84
34979;BME280;21185;50.978;13.720;2023-04-19T00:08:13;99036.56;;;9.54;85.84
34979;BME280;21185;50.978;13.720;2023-04-19T00:13:15;99033.97;;;9.54;85.95
34979;BME280;21185;50.978;13.720;2023-04-19T00:18:17;99031.38;;;9.54;85.70
34979;BME280;21185;50.978;13.720;2023-04-19T00:23:19;99023.75;;;9.53;85.85
34979;BME280;21185;50.978;13.720;2023-04-19T00:28:21;99017.06;;;9.50;85.68
34979;BME280;21185;50.978;13.720;2023-04-19T00:33:22;99026.59;;;9.50;85.72
34979;BME280;21185;50.978;13.720;2023-04-19T00:38:24;99015.00;;;9.44;85.63
34979;BME280;21185;50.978;13.720;2023-04-19T00:43:26;99020.47;;;9.41;85.57
34979;BME280;21185;50.978;13.720;2023-04-19T00:48:28;99005.75;;;9.41;85.64
34979;BME280;21185;50.978;13.720;2023-04-19T00:53:31;99000.69;;;9.40;85.48
34979;BME280;21185;50.978;13.720;2023-04-19T00:58:33;98999.88;;;9.39;85.47
34979;BME280;21185;50.978;13.720;2023-04-19T01:03:36;98992.09;;;9.39;85.42
34979;BME280;21185;50.978;13.720;2023-04-19T01:08:39;98984.63;;;9.36;85.26
34979;BME280;21185;50.978;13.720;2023-04-19T01:13:41;98992.66;;;9.33;85.21
34979;BME280;21185;50.978;13.720;2023-04-19T01:18:43;98981.75;;;9.30;85.33
34979;BME280;21185;50.978;13.720;2023-04-19T01:23:45;98973.03;;;9.31;85.37
34979;BME280;21185;50.978;13.720;2023-04-19T01:28:49;98975.63;;;9.31;85.19
34979;BME280;21185;50.978;13.720;2023-04-19T01:33:51;98970.56;;;9.29;85.15
34979;BME280;21185;50.978;13.720;2023-04-19T01:38:52;98978.63;;;9.26;85.05
34979;BME280;21185;50.978;13.720;2023-04-19T01:43:54;98969.34;;;9.24;85.04
34979;BME280;21185;50.978;13.720;2023-04-19T01:48:56;98974.94;;;9.19;84.90
34979;BME280;21185;50.978;13.720;2023-04-19T01:53:58;98970.84;;;9.17;84.86
34979;BME280;21185;50.978;13.720;2023-04-19T01:59:00;98969.22;;;9.16;84.83
34979;BME280;21185;50.978;13.720;2023-04-19T02:04:04;98964.16;;;9.14;84.85
34979;BME280;21185;50.978;13.720;2023-04-19T02:09:06;98959.00;;;9.14;84.72
34979;BME280;21185;50.978;13.720;2023-04-19T02:14:08;98949.03;;;9.09;84.50
34979;BME280;21185;50.978;13.720;2023-04-19T02:19:10;98949.03;;;9.09;84.64
34979;BME280;21185;50.978;13.720;2023-04-19T02:24:12;98952.59;;;9.08;84.54
34979;BME280;21185;50.978;13.720;2023-04-19T02:29:16;98946.06;;;9.04;84.59
34979;BME280;21185;50.978;13.720;2023-04-19T02:34:17;98953.00;;;9.04;84.47
34979;BME280;21185;50.978;13.720;2023-04-19T02:39:20;98946.06;;;9.04;84.38
34979;BME280;21185;50.978;13.720;2023-04-19T02:44:22;98941.16;;;9.01;84.31
34979;BME280;21185;50.978;13.720;2023-04-19T02:49:23;98939.78;;;8.97;84.22
34979;BME280;21185;50.978;13.720;2023-04-19T02:54:25;98936.50;;;8.95;84.31
34979;BME280;21185;50.978;13.720;2023-04-19T02:59:27;98931.34;;;8.95;84.25
34979;BME280;21185;50.978;13.720;2023-04-19T03:04:33;98932.28;;;8.94;84.17
34979;BME280;21185;50.978;13.720;2023-04-19T03:09:35;98927.50;;;8.90;83.99
34979;BME280;21185;50.978;13.720;2023-04-19T03:14:38;98923.44;;;8.87;83.94
34979;BME280;21185;50.978;13.720;2023-04-19T03:19:40;98921.09;;;8.84;84.11
34979;BME280;21185;50.978;13.720;2023-04-19T03:24:42;98909.53;;;8.79;83.83
34979;BME280;21185;50.978;13.720;2023-04-19T03:29:51;98908.72;;;8.78;84.26
34979;BME280;21185;50.978;13.720;2023-04-19T03:34:54;98897.41;;;8.79;83.95
34979;BME280;21185;50.978;13.720;2023-04-19T03:39:56;98888.97;;;8.77;83.72
34979;BME280;21185;50.978;13.720;2023-04-19T03:45:05;98884.75;;;8.76;83.85
34979;BME280;21185;50.978;13.720;2023-04-19T03:50:11;98878.75;;;8.75;83.74
34979;BME280;21185;50.978;13.720;2023-04-19T03:55:16;98880.66;;;8.73;83.71
34979;BME280;21185;50.978;13.720;2023-04-19T04:00:18;98878.19;;;8.72;83.70
34979;BME280;21185;50.978;13.720;2023-04-19T04:05:27;98881.88;;;8.69;83.59
34979;BME280;21185;50.978;13.720;2023-04-19T04:10:29;98872.63;;;8.67;83.56
34979;BME280;21185;50.978;13.720;2023-04-19T04:15:32;98886.91;;;8.61;83.39
34979;BME280;21185;50.978;13.720;2023-04-19T04:20:34;98888.94;;;8.58;83.44
34979;BME280;21185;50.978;13.720;2023-04-19T04:25:40;98886.63;;;8.55;83.39
34979;BME280;21185;50.978;13.720;2023-04-19T04:30:46;98889.63;;;8.50;83.20
34979;BME280;21185;50.978;13.720;2023-04-19T04:35:49;98890.03;;;8.46;83.33
34979;BME280;21185;50.978;13.720;2023-04-19T04:40:55;98891.38;;;8.40;82.98
34979;BME280;21185;50.978;13.720;2023-04-19T04:45:58;98884.38;;;8.31;82.88
34979;BME280;21185;50.978;13.720;2023-04-19T04:51:05;98878.91;;;8.24;82.84
34979;BME280;21185;50.978;13.720;2023-04-19T04:56:09;98871.56;;;8.20;82.68
34979;BME280;21185;50.978;13.720;2023-04-19T05:01:11;98885.56;;;8.17;82.48
34979;BME280;21185;50.978;13.720;2023-04-19T05:06:15;98878.34;;;8.11;82.47
34979;BME280;21185;50.978;13.720;2023-04-19T05:11:19;98881.31;;;8.06;82.27
34979;BME280;21185;50.978;13.720;2023-04-19T05:16:21;98869.22;;;8.07;82.14
34979;BME280;21185;50.978;13.720;2023-04-19T05:21:24;98863.09;;;8.08;82.13
34979;BME280;21185;50.978;13.720;2023-04-19T05:26:26;98866.09;;;8.13;81.89
34979;BME280;21185;50.978;13.720;2023-04-19T05:31:29;98870.19;;;8.16;81.75
34979;BME280;21185;50.978;13.720;2023-04-19T05:36:52;98878.06;;;8.14;81.46
34979;BME280;21185;50.978;13.720;2023-04-19T05:41:54;98875.06;;;8.09;81.10
34979;BME280;21185;50.978;13.720;2023-04-19T05:46:56;98885.94;;;8.03;80.44
34979;BME280;21185;50.978;13.720;2023-04-19T05:52:18;98877.19;;;7.94;80.06
34979;BME280;21185;50.978;13.720;2023-04-19T05:57:24;98877.03;;;7.86;79.66
34979;BME280;21185;50.978;13.720;2023-04-19T06:02:26;98887.09;;;7.89;79.73
34979;BME280;21185;50.978;13.720;2023-04-19T06:07:29;98880.16;;;7.90;79.47
34979;BME280;21185;50.978;13.720;2023-04-19T06:12:38;98885.91;;;7.93;79.31
34979;BME280;21185;50.978;13.720;2023-04-19T06:17:40;98890.94;;;7.95;79.13
34979;BME280;21185;50.978;13.720;2023-04-19T06:22:47;98883.31;;;7.93;78.36
34979;BME280;21185;50.978;13.720;2023-04-19T06:27:49;98880.47;;;7.96;78.24
34979;BME280;21185;50.978;13.720;2023-04-19T06:32:51;98873.28;;;8.00;78.20
34979;BME280;21185;50.978;13.720;2023-04-19T06:37:53;98863.78;;;8.10;78.06
34979;BME280;21185;50.978;13.720;2023-04-19T06:42:55;98868.56;;;8.24;77.78
34979;BME280;21185;50.978;13.720;2023-04-19T06:47:57;98878.16;;;8.33;77.39
34979;BME280;21185;50.978;13.720;2023-04-19T06:52:58;98872.72;;;8.36;76.59
34979;BME280;21185;50.978;13.720;2023-04-19T06:58:02;98869.88;;;8.49;76.44
34979;BME280;21185;50.978;13.720;2023-04-19T07:03:04;98871.94;;;8.55;75.96
34979;BME280;21185;50.978;13.720;2023-04-19T07:08:06;98873.56;;;8.66;75.55
34979;BME280;21185;50.978;13.720;2023-04-19T07:13:12;98856.56;;;8.73;74.91
34979;BME280;21185;50.978;13.720;2023-04-19T07:18:14;98846.34;;;8.81;74.36
34979;BME280;21185;50.978;13.720;2023-04-19T07:23:16;98839.25;;;8.93;74.44
34979;BME280;21185;50.978;13.720;2023-04-19T07:28:18;98837.59;;;9.01;73.42
34979;BME280;21185;50.978;13.720;2023-04-19T07:33:22;98829.13;;;9.09;72.70
34979;BME280;21185;50.978;13.720;2023-04-19T07:38:29;98819.59;;;9.19;72.30
34979;BME280;21185;50.978;13.720;2023-04-19T07:43:32;98827.19;;;9.30;71.96
34979;BME280;21185;50.978;13.720;2023-04-19T07:48:34;98824.84;;;9.37;71.93
34979;BME280;21185;50.978;13.720;2023-04-19T07:53:38;98817.38;;;9.34;70.60
34979;BME280;21185;50.978;13.720;2023-04-19T07:58:40;98819.50;;;9.48;70.63
34979;BME280;21185;50.978;13.720;2023-04-19T08:03:44;98823.81;;;9.57;70.22
34979;BME280;21185;50.978;13.720;2023-04-19T08:08:47;98816.31;;;9.64;69.81
34979;BME280;21185;50.978;13.720;2023-04-19T08:13:50;98810.00;;;9.66;69.33
34979;BME280;21185;50.978;13.720;2023-04-19T08:19:12;98808.19;;;9.77;69.06
34979;BME280;21185;50.978;13.720;2023-04-19T08:24:14;98797.84;;;9.77;67.70
34979;BME280;21185;50.978;13.720;2023-04-19T08:29:16;98794.38;;;9.86;67.80
34979;BME280;21185;50.978;13.720;2023-04-19T08:34:19;98797.72;;;9.96;68.02
34979;BME280;21185;50.978;13.720;2023-04-19T08:39:21;98790.03;;;10.04;67.96
34979;BME280;21185;50.978;13.720;2023-04-19T08:44:36;98783.97;;;10.13;67.79
34979;BME280;21185;50.978;13.720;2023-04-19T08:50:06;98786.72;;;10.12;67.11
34979;BME280;21185;50.978;13.720;2023-04-19T08:55:29;98779.16;;;10.18;67.52
34979;BME280;21185;50.978;13.720;2023-04-19T09:00:33;98767.41;;;10.24;67.47
34979;BME280;21185;50.978;13.720;2023-04-19T09:05:37;98770.09;;;10.32;67.08
34979;BME280;21185;50.978;13.720;2023-04-19T09:10:56;98759.03;;;10.30;65.96
34979;BME280;21185;50.978;13.720;2023-04-19T09:16:00;98759.19;;;10.28;65.96
34979;BME280;21185;50.978;13.720;2023-04-19T09:21:03;98755.88;;;10.44;65.89
34979;BME280;21185;50.978;13.720;2023-04-19T09:26:05;98754.84;;;10.55;64.79
34979;BME280;21185;50.978;13.720;2023-04-19T09:31:26;98744.53;;;10.63;64.81
34979;BME280;21185;50.978;13.720;2023-04-19T09:36:48;98742.91;;;10.62;65.25
34979;BME280;21185;50.978;13.720;2023-04-19T09:42:01;98744.88;;;10.68;65.57
34979;BME280;21185;50.978;13.720;2023-04-19T09:47:22;98733.97;;;10.82;65.40
34979;BME280;21185;50.978;13.720;2023-04-19T09:52:24;98732.88;;;10.93;65.88
34979;BME280;21185;50.978;13.720;2023-04-19T09:57:30;98732.53;;;10.88;66.09
34979;BME280;21185;50.978;13.720;2023-04-19T10:02:33;98729.97;;;10.70;65.77
34979;BME280;21185;50.978;13.720;2023-04-19T10:07:37;98719.03;;;10.84;65.54
34979;BME280;21185;50.978;13.720;2023-04-19T10:12:39;98718.16;;;11.01;65.63
34979;BME280;21185;50.978;13.720;2023-04-19T10:18:03;98717.47;;;10.91;65.72
34979;BME280;21185;50.978;13.720;2023-04-19T10:23:07;98709.00;;;10.89;65.48
34979;BME280;21185;50.978;13.720;2023-04-19T10:28:10;98705.09;;;10.85;65.09
34979;BME280;21185;50.978;13.720;2023-04-19T10:33:24;98700.47;;;10.71;64.64
34979;BME280;21185;50.978;13.720;2023-04-19T10:38:39;98702.66;;;10.58;64.41
34979;BME280;21185;50.978;13.720;2023-04-19T10:49:00;98707.31;;;10.54;64.66
34979;BME280;21185;50.978;13.720;2023-04-19T10:54:26;98704.88;;;10.53;64.15
34979;BME280;21185;50.978;13.720;2023-04-19T10:59:33;98691.25;;;10.51;63.80
34979;BME280;21185;50.978;13.720;2023-04-19T11:09:39;98684.56;;;10.40;63.44
34979;BME280;21185;50.978;13.720;2023-04-19T11:14:46;98682.13;;;10.47;63.68
34979;BME280;21185;50.978;13.720;2023-04-19T11:20:04;98659.44;;;10.49;63.24
34979;BME280;21185;50.978;13.720;2023-04-19T11:25:16;98653.94;;;10.52;63.37
34979;BME280;21185;50.978;13.720;2023-04-19T11:30:27;98652.72;;;10.64;63.13
34979;BME280;21185;50.978;13.720;2023-04-19T11:35:31;98636.91;;;10.75;63.16
34979;BME280;21185;50.978;13.720;2023-04-19T11:40:33;98642.06;;;11.01;62.91
34979;BME280;21185;50.978;13.720;2023-04-19T11:45:36;98644.78;;;10.91;62.32
34979;BME280;21185;50.978;13.720;2023-04-19T11:50:43;98643.75;;;10.84;62.50
34979;BME280;21185;50.978;13.720;2023-04-19T11:55:56;98643.25;;;10.81;62.66
34979;BME280;21185;50.978;13.720;2023-04-19T12:01:07;98632.25;;;10.87;62.05
34979;BME280;21185;50.978;13.720;2023-04-19T12:06:13;98643.44;;;10.87;62.04
34979;BME280;21185;50.978;13.720;2023-04-19T12:11:17;98634.16;;;10.77;61.55
34979;BME280;21185;50.978;13.720;2023-04-19T12:16:27;98635.38;;;10.64;61.55
34979;BME280;21185;50.978;13.720;2023-04-19T12:21:30;98637.47;;;10.61;61.78
34979;BME280;21185;50.978;13.720;2023-04-19T12:26:34;98633.09;;;10.61;61.51
34979;BME280;21185;50.978;13.720;2023-04-19T12:31:36;98618.41;;;10.78;61.39
34979;BME280;21185;50.978;13.720;2023-04-19T12:36:38;98615.28;;;11.00;60.79
34979;BME280;21185;50.978;13.720;2023-04-19T12:41:40;98617.56;;;11.03;60.90
34979;BME280;21185;50.978;13.720;2023-04-19T12:46:42;98622.56;;;10.97;60.98
34979;BME280;21185;50.978;13.720;2023-04-19T12:51:45;98616.84;;;10.85;61.06
34979;BME280;21185;50.978;13.720;2023-04-19T12:56:48;98611.94;;;10.82;61.12
34979;BME280;21185;50.978;13.720;2023-04-19T13:01:51;98612.44;;;10.86;61.23
34979;BME280;21185;50.978;13.720;2023-04-19T13:06:53;98599.66;;;10.92;60.99
34979;BME280;21185;50.978;13.720;2023-04-19T13:11:55;98602.09;;;10.94;60.96
34979;BME280;21185;50.978;13.720;2023-04-19T13:16:58;98592.09;;;11.07;60.49
34979;BME280;21185;50.978;13.720;2023-04-19T13:22:00;98593.22;;;11.04;60.62
34979;BME280;21185;50.978;13.720;2023-04-19T13:27:02;98580.88;;;11.07;60.99
34979;BME280;21185;50.978;13.720;2023-04-19T13:32:06;98567.44;;;11.11;61.04
34979;BME280;21185;50.978;13.720;2023-04-19T13:37:13;98551.03;;;11.11;61.17
34979;BME280;21185;50.978;13.720;2023-04-19T13:42:17;98548.47;;;11.27;61.17
34979;BME280;21185;50.978;13.720;2023-04-19T13:47:21;98536.63;;;11.41;60.86
34979;BME280;21185;50.978;13.720;2023-04-19T13:52:23;98536.47;;;11.42;61.03
34979;BME280;21185;50.978;13.720;2023-04-19T13:57:24;98538.72;;;11.29;61.01
34979;BME280;21185;50.978;13.720;2023-04-19T14:02:27;98551.66;;;11.04;61.04
34979;BME280;21185;50.978;13.720;2023-04-19T14:07:29;98541.28;;;10.62;61.33
34979;BME280;21185;50.978;13.720;2023-04-19T14:12:30;98539.44;;;10.38;62.28
34979;BME280;21185;50.978;13.720;2023-04-19T14:17:32;98544.94;;;10.35;62.92
34979;BME280;21185;50.978;13.720;2023-04-19T14:22:37;98540.41;;;10.37;63.20
34979;BME280;21185;50.978;13.720;2023-04-19T14:27:40;98578.91;;;10.24;63.74
34979;BME280;21185;50.978;13.720;2023-04-19T14:32:42;98589.78;;;9.66;64.86
34979;BME280;21185;50.978;13.720;2023-04-19T14:37:44;98580.34;;;9.30;65.81
34979;BME280;21185;50.978;13.720;2023-04-19T14:42:46;98581.38;;;9.19;66.47
34979;BME280;21185;50.978;13.720;2023-04-19T14:47:48;98582.72;;;9.23;66.64
34979;BME280;21185;50.978;13.720;2023-04-19T14:52:50;98589.53;;;9.24;67.12
34979;BME280;21185;50.978;13.720;2023-04-19T14:57:52;98587.06;;;9.23;67.39
34979;BME280;21185;50.978;13.720;2023-04-19T15:02:53;98599.44;;;9.29;67.54
34979;BME280;21185;50.978;13.720;2023-04-19T15:07:55;98593.81;;;9.33;67.74
34979;BME280;21185;50.978;13.720;2023-04-19T15:12:57;98593.91;;;9.41;68.03
34979;BME280;21185;50.978;13.720;2023-04-19T15:18:00;98591.75;;;9.37;68.30
34979;BME280;21185;50.978;13.720;2023-04-19T15:23:02;98590.34;;;9.25;68.76
34979;BME280;21185;50.978;13.720;2023-04-19T15:28:04;98592.38;;;9.03;69.04
34979;BME280;21185;50.978;13.720;2023-04-19T15:33:06;98601.19;;;8.83;69.50
34979;BME280;21185;50.978;13.720;2023-04-19T15:38:09;98597.81;;;8.73;69.36
34979;BME280;21185;50.978;13.720;2023-04-19T15:43:11;98607.25;;;8.64;69.53
34979;BME280;21185;50.978;13.720;2023-04-19T15:48:12;98602.66;;;8.58;69.86
34979;BME280;21185;50.978;13.720;2023-04-19T15:53:14;98604.25;;;8.69;69.65
34979;BME280;21185;50.978;13.720;2023-04-19T15:58:16;98598.75;;;8.82;69.60
34979;BME280;21185;50.978;13.720;2023-04-19T16:03:18;98599.22;;;8.95;69.67
34979;BME280;21185;50.978;13.720;2023-04-19T16:08:20;98610.69;;;8.92;69.69
34979;BME280;21185;50.978;13.720;2023-04-19T16:13:22;98600.22;;;8.84;69.70
34979;BME280;21185;50.978;13.720;2023-04-19T16:18:24;98599.78;;;8.89;69.59
34979;BME280;21185;50.978;13.720;2023-04-19T16:23:29;98584.50;;;8.95;69.30
34979;BME280;21185;50.978;13.720;2023-04-19T16:28:31;98588.59;;;8.98;69.09
34979;BME280;21185;50.978;13.720;2023-04-19T16:33:32;98580.69;;;8.99;69.09
34979;BME280;21185;50.978;13.720;2023-04-19T16:38:35;98586.53;;;9.01;68.94
34979;BME280;21185;50.978;13.720;2023-04-19T16:43:36;98573.97;;;9.06;69.16
34979;BME280;21185;50.978;13.720;2023-04-19T16:48:39;98572.72;;;9.11;69.02
34979;BME280;21185;50.978;13.720;2023-04-19T16:53:40;98566.56;;;9.12;68.91
34979;BME280;21185;50.978;13.720;2023-04-19T16:58:45;98563.03;;;9.13;68.99
34979;BME280;21185;50.978;13.720;2023-04-19T17:03:46;98552.81;;;9.11;68.98
34979;BME280;21185;50.978;13.720;2023-04-19T17:08:49;98554.59;;;9.11;68.86
34979;BME280;21185;50.978;13.720;2023-04-19T17:13:51;98544.91;;;9.13;69.01
34979;BME280;21185;50.978;13.720;2023-04-19T17:18:57;98547.63;;;9.11;68.93
34979;BME280;21185;50.978;13.720;2023-04-19T17:23:59;98544.38;;;9.09;68.88
34979;BME280;21185;50.978;13.720;2023-04-19T17:29:02;98544.66;;;9.06;68.96
34979;BME280;21185;50.978;13.720;2023-04-19T17:34:05;98559.69;;;9.02;69.09
34979;BME280;21185;50.978;13.720;2023-04-19T17:39:07;98544.44;;;8.99;69.13
34979;BME280;21185;50.978;13.720;2023-04-19T17:44:09;98532.47;;;8.98;69.10
34979;BME280;21185;50.978;13.720;2023-04-19T17:49:11;98548.66;;;9.00;69.21
34979;BME280;21185;50.978;13.720;2023-04-19T17:54:14;98541.19;;;8.97;69.19
34979;BME280;21185;50.978;13.720;2023-04-19T17:59:16;98544.72;;;8.96;69.31
34979;BME280;21185;50.978;13.720;2023-04-19T18:04:18;98541.31;;;8.96;69.58
34979;BME280;21185;50.978;13.720;2023-04-19T18:09:20;98546.66;;;8.94;69.71
34979;BME280;21185;50.978;13.720;2023-04-19T18:14:22;98546.13;;;8.91;69.66
34979;BME280;21185;50.978;13.720;2023-04-19T18:19:25;98551.28;;;8.91;69.84
34979;BME280;21185;50.978;13.720;2023-04-19T18:24:28;98550.47;;;8.90;69.87
34979;BME280;21185;50.978;13.720;2023-04-19T18:29:29;98555.28;;;8.85;69.88
34979;BME280;21185;50.978;13.720;2023-04-19T18:34:31;98553.56;;;8.76;69.80
34979;BME280;21185;50.978;13.720;2023-04-19T18:39:33;98560.53;;;8.66;69.99
34979;BME280;21185;50.978;13.720;2023-04-19T18:44:36;98559.78;;;8.56;70.06
34979;BME280;21185;50.978;13.720;2023-04-19T18:49:54;98567.00;;;8.52;70.20
34979;BME280;21185;50.978;13.720;2023-04-19T18:55:07;98563.31;;;8.55;70.26
34979;BME280;21185;50.978;13.720;2023-04-19T19:00:09;98564.94;;;8.56;70.20
34979;BME280;21185;50.978;13.720;2023-04-19T19:05:12;98561.41;;;8.57;70.14
34979;BME280;21185;50.978;13.720;2023-04-19T19:10:16;98568.06;;;8.59;70.26
34979;BME280;21185;50.978;13.720;2023-04-19T19:15:23;98565.63;;;8.58;70.26
34979;BME280;21185;50.978;13.720;2023-04-19T19:20:25;98570.13;;;8.56;70.33
34979;BME280;21185;50.978;13.720;2023-04-19T19:25:26;98565.22;;;8.53;70.35
34979;BME280;21185;50.978;13.720;2023-04-19T19:30:28;98567.81;;;8.53;70.29
34979;BME280;21185;50.978;13.720;2023-04-19T19:35:34;98571.34;;;8.52;70.42
34979;BME280;21185;50.978;13.720;2023-04-19T19:40:36;98568.53;;;8.45;70.45
34979;BME280;21185;50.978;13.720;2023-04-19T19:45:59;98569.22;;;8.37;70.39
34979;BME280;21185;50.978;13.720;2023-04-19T19:51:05;98563.78;;;8.31;70.60
34979;BME280;21185;50.978;13.720;2023-04-19T19:56:27;98556.97;;;8.30;70.55
34979;BME280;21185;50.978;13.720;2023-04-19T20:01:29;98559.56;;;8.30;70.55
34979;BME280;21185;50.978;13.720;2023-04-19T20:06:32;98556.28;;;8.28;70.49
34979;BME280;21185;50.978;13.720;2023-04-19T20:11:37;98557.25;;;8.27;70.63
34979;BME280;21185;50.978;13.720;2023-04-19T20:16:39;98559.31;;;8.23;70.62
34979;BME280;21185;50.978;13.720;2023-04-19T20:21:41;98557.28;;;8.17;70.70
34979;BME280;21185;50.978;13.720;2023-04-19T20:26:42;98547.50;;;8.11;70.72
34979;BME280;21185;50.978;13.720;2023-04-19T20:31:44;98559.47;;;8.12;70.80
34979;BME280;21185;50.978;13.720;2023-04-19T20:36:46;98551.56;;;8.13;70.66
34979;BME280;21185;50.978;13.720;2023-04-19T20:41:48;98558.38;;;8.15;70.75
34979;BME280;21185;50.978;13.720;2023-04-19T20:46:52;98554.16;;;8.13;70.68
34979;BME280;21185;50.978;13.720;2023-04-19T20:51:54;98552.00;;;8.09;70.72
34979;BME280;21185;50.978;13.720;2023-04-19T20:56:59;98551.59;;;8.04;70.77
34979;BME280;21185;50.978;13.720;2023-04-19T21:02:02;98561.25;;;8.02;71.00
34979;BME280;21185;50.978;13.720;2023-04-19T21:07:04;98558.13;;;7.98;70.90
34979;BME280;21185;50.978;13.720;2023-04-19T21:12:06;98553.78;;;7.99;70.80
34979;BME280;21185;50.978;13.720;2023-04-19T21:17:08;98552.16;;;7.98;70.68
34979;BME280;21185;50.978;13.720;2023-04-19T21:22:10;98549.03;;;7.94;70.75
34979;BME280;21185;50.978;13.720;2023-04-19T21:27:12;98551.34;;;7.88;70.97
34979;BME280;21185;50.978;13.720;2023-04-19T21:32:13;98542.53;;;7.80;70.91
34979;BME280;21185;50.978;13.720;2023-04-19T21:37:16;98541.84;;;7.78;70.82
34979;BME280;21185;50.978;13.720;2023-04-19T21:42:19;98545.91;;;7.81;70.93
34979;BME280;21185;50.978;13.720;2023-04-19T21:47:21;98546.59;;;7.83;70.95
34979;BME280;21185;50.978;13.720;2023-04-19T21:52:23;98545.09;;;7.80;71.06
34979;BME280;21185;50.978;13.720;2023-04-19T21:57:25;98554.91;;;7.77;71.11
34979;BME280;21185;50.978;13.720;2023-04-19T22:02:27;98547.28;;;7.75;70.99
34979;BME280;21185;50.978;13.720;2023-04-19T22:07:29;98548.91;;;7.76;71.02
34979;BME280;21185;50.978;13.720;2023-04-19T22:12:32;98553.13;;;7.77;71.04
34979;BME280;21185;50.978;13.720;2023-04-19T22:17:35;98538.59;;;7.76;71.06
34979;BME280;21185;50.978;13.720;2023-04-19T22:22:41;98537.75;;;7.76;70.96
34979;BME280;21185;50.978;13.720;2023-04-19T22:27:43;98543.75;;;7.76;70.96
34979;BME280;21185;50.978;13.720;2023-04-19T22:32:46;98536.81;;;7.77;71.21
34979;BME280;21185;50.978;13.720;2023-04-19T22:37:48;98540.22;;;7.77;71.17
34979;BME280;21185;50.978;13.720;2023-04-19T22:42:49;98540.34;;;7.76;71.26
34979;BME280;21185;50.978;13.720;2023-04-19T22:47:51;98534.50;;;7.74;71.30
34979;BME280;21185;50.978;13.720;2023-04-19T22:52:53;98536.28;;;7.73;71.25
34979;BME280;21185;50.978;13.720;2023-04-19T22:57:55;98537.22;;;7.72;71.15
34979;BME280;21185;50.978;13.720;2023-04-19T23:02:57;98535.88;;;7.68;71.24
34979;BME280;21185;50.978;13.720;2023-04-19T23:07:59;98535.75;;;7.60;71.12
34979;BME280;21185;50.978;13.720;2023-04-19T23:13:04;98528.25;;;7.57;71.45
34979;BME280;21185;50.978;13.720;2023-04-19T23:18:06;98533.69;;;7.54;71.24
34979;BME280;21185;50.978;13.720;2023-04-19T23:23:08;98531.13;;;7.44;71.35
34979;BME280;21185;50.978;13.720;2023-04-19T23:28:10;98535.06;;;7.39;71.84
34979;BME280;21185;50.978;13.720;2023-04-19T23:33:13;98528.53;;;7.35;71.84
34979;BME280;21185;50.978;13.720;2023-04-19T23:38:15;98536.81;;;7.38;71.93
34979;BME280;21185;50.978;13.720;2023-04-19T23:43:17;98535.59;;;7.42;71.98
34979;BME280;21185;50.978;13.720;2023-04-19T23:48:19;98536.44;;;7.43;71.82
34979;BME280;21185;50.978;13.720;2023-04-19T23:53:20;98520.94;;;7.43;71.91
34979;BME280;21185;50.978;13.720;2023-04-19T23:58:22;98513.59;;;7.38;71.87
